createdAt,value
2023-02-24T00:00:39.066Z,87.40
2023-02-24T00:03:05.958Z,87.50
2023-02-24T00:05:39.058Z,87.60
2023-02-24T00:08:06.222Z,87.60
2023-02-24T00:10:33.915Z,87.60
2023-02-24T00:13:00.584Z,87.50
2023-02-24T00:15:27.248Z,88.30
2023-02-24T00:17:53.926Z,89.20
2023-02-24T00:20:21.304Z,88.60
2023-02-24T00:22:47.926Z,88.40
2023-02-24T00:25:14.640Z,87.90
2023-02-24T00:27:42.455Z,87.80
2023-02-24T00:30:11.882Z,87.50
2023-02-24T00:32:38.821Z,87.50
2023-02-24T00:35:06.300Z,87.40
2023-02-24T00:37:33.053Z,87.40
2023-02-24T00:39:59.768Z,87.70
2023-02-24T00:42:27.135Z,88.20
2023-02-24T00:44:54.886Z,87.80
2023-02-24T00:47:22.437Z,87.50
2023-02-24T00:49:50.254Z,87.40
2023-02-24T00:52:19.786Z,87.30
2023-02-24T00:54:48.510Z,87.80
2023-02-24T00:57:18.244Z,87.90
2023-02-24T00:59:47.860Z,87.70
2023-02-24T01:02:15.668Z,87.60
2023-02-24T01:04:44.255Z,87.50
2023-02-24T01:07:11.692Z,87.80
2023-02-24T01:09:41.159Z,87.60
2023-02-24T01:12:29.110Z,87.50
2023-02-24T01:14:55.794Z,87.50
2023-02-24T01:17:22.825Z,87.40
2023-02-24T01:19:50.213Z,87.50
2023-02-24T01:22:19.005Z,87.50
2023-02-24T01:24:46.408Z,87.50
2023-02-24T01:27:14.582Z,87.50
2023-02-24T01:29:41.774Z,87.40
2023-02-24T01:32:16.698Z,87.40
2023-02-24T01:34:43.825Z,87.50
2023-02-24T01:37:10.625Z,87.50
2023-02-24T01:39:37.651Z,87.20
2023-02-24T01:42:06.292Z,87.40
2023-02-24T01:44:33.249Z,87.40
2023-02-24T01:47:03.878Z,87.40
2023-02-24T01:49:41.275Z,87.40
2023-02-24T01:52:24.432Z,87.30
2023-02-24T01:55:16.780Z,87.40
2023-02-24T01:57:46.070Z,87.40
2023-02-24T02:00:33.734Z,87.40
2023-02-24T02:03:31.066Z,87.30
2023-02-24T02:06:03.953Z,87.30
2023-02-24T02:08:32.159Z,87.30
2023-02-24T02:11:03.422Z,87.20
2023-02-24T02:13:31.319Z,87.30
2023-02-24T02:16:30.800Z,87.30
2023-02-24T02:19:36.144Z,87.20
2023-02-24T02:22:17.449Z,87.20
2023-02-24T02:25:00.803Z,87.20
2023-02-24T02:27:42.599Z,87.20
2023-02-24T02:30:43.837Z,87.20
2023-02-24T02:33:21.527Z,87.20
2023-02-24T02:36:00.537Z,87.20
2023-02-24T02:38:42.997Z,87.30
2023-02-24T02:41:29.705Z,87.10
2023-02-24T02:44:09.340Z,87.20
2023-02-24T02:46:46.429Z,87.20
2023-02-24T02:49:13.060Z,87.10
2023-02-24T02:51:51.628Z,87.10
2023-02-24T02:54:56.382Z,87.10
2023-02-24T02:57:30.174Z,87.10
2023-02-24T03:00:13.791Z,87.20
2023-02-24T03:02:48.075Z,87.30
2023-02-24T03:05:21.301Z,88.10
2023-02-24T03:07:54.616Z,88.30
2023-02-24T03:10:28.920Z,88.20
2023-02-24T03:12:59.553Z,88.20
2023-02-24T03:15:30.310Z,87.90
2023-02-24T03:18:10.136Z,87.70
2023-02-24T03:20:42.880Z,87.70
2023-02-24T03:23:17.293Z,87.80
2023-02-24T03:26:17.270Z,87.50
2023-02-24T03:28:59.341Z,87.50
2023-02-24T03:31:30.394Z,87.30
2023-02-24T03:34:13.938Z,87.30
2023-02-24T03:36:40.939Z,87.40
2023-02-24T03:39:11.667Z,87.30
2023-02-24T03:41:47.109Z,87.20
2023-02-24T03:44:14.741Z,87.20
2023-02-24T03:46:42.631Z,87.10
2023-02-24T03:49:12.439Z,87.10
2023-02-24T03:51:39.692Z,87.10
2023-02-24T03:54:37.515Z,87.00
2023-02-24T03:57:29.089Z,87.00
2023-02-24T04:00:23.192Z,87.00
2023-02-24T04:03:09.595Z,87.00
2023-02-24T04:05:47.526Z,86.90
2023-02-24T04:08:16.001Z,87.00
2023-02-24T04:10:57.359Z,86.90
2023-02-24T04:13:46.056Z,86.90
2023-02-24T04:16:36.248Z,87.00
2023-02-24T04:19:08.657Z,87.00
2023-02-24T04:21:37.696Z,87.00
2023-02-24T04:24:11.372Z,87.00
2023-02-24T04:26:42.479Z,86.90
2023-02-24T04:29:13.910Z,86.90
2023-02-24T04:31:40.850Z,86.80
2023-02-24T04:34:09.408Z,86.80
2023-02-24T04:36:37.941Z,86.80
2023-02-24T04:39:05.008Z,86.80
2023-02-24T04:41:31.652Z,86.70
2023-02-24T04:43:58.280Z,86.80
2023-02-24T04:46:25.249Z,86.80
2023-02-24T04:48:51.922Z,86.70
2023-02-24T04:51:21.079Z,86.60
2023-02-24T04:53:49.558Z,86.60
2023-02-24T04:56:18.599Z,86.50
2023-02-24T04:58:46.311Z,86.50
2023-02-24T05:01:13.025Z,86.50
2023-02-24T05:03:42.828Z,86.60
2023-02-24T05:06:15.977Z,86.70
2023-02-24T05:08:43.526Z,86.50
2023-02-24T05:11:18.257Z,86.50
2023-02-24T05:13:45.819Z,86.50
2023-02-24T05:16:14.175Z,86.60
2023-02-24T05:18:42.580Z,86.60
2023-02-24T05:21:30.625Z,86.80
2023-02-24T05:24:06.436Z,86.60
2023-02-24T05:26:35.876Z,86.60
2023-02-24T05:29:04.152Z,86.50
2023-02-24T05:31:31.742Z,86.50
2023-02-24T05:34:04.845Z,86.40
2023-02-24T05:36:39.067Z,86.50
2023-02-24T05:39:07.379Z,86.50
2023-02-24T05:41:36.199Z,86.40
2023-02-24T05:44:08.509Z,86.40
2023-02-24T05:46:39.223Z,86.20
2023-02-24T05:49:09.133Z,86.30
2023-02-24T05:51:39.238Z,86.20
2023-02-24T05:54:11.501Z,86.20
2023-02-24T05:56:40.122Z,86.20
2023-02-24T05:59:10.762Z,86.20
2023-02-24T06:01:41.600Z,86.20
2023-02-24T06:04:09.768Z,86.20
2023-02-24T06:06:38.923Z,86.10
2023-02-24T06:09:10.560Z,86.20
2023-02-24T06:11:38.499Z,86.10
2023-02-24T06:14:07.110Z,86.10
2023-02-24T06:16:35.500Z,86.20
2023-02-24T06:19:02.377Z,86.10
2023-02-24T06:21:29.992Z,86.10
2023-02-24T06:24:00.789Z,86.10
2023-02-24T06:26:33.617Z,86.00
2023-02-24T06:29:00.609Z,85.80
2023-02-24T06:31:28.330Z,86.10
2023-02-24T06:33:56.041Z,86.10
2023-02-24T06:36:23.226Z,85.90
2023-02-24T06:38:49.982Z,86.00
2023-02-24T06:41:16.739Z,86.10
2023-02-24T06:43:45.177Z,85.90
2023-02-24T06:46:13.719Z,85.90
2023-02-24T06:48:41.641Z,85.90
2023-02-24T06:51:13.546Z,85.90
2023-02-24T06:53:43.569Z,86.10
2023-02-24T06:56:15.196Z,86.00
2023-02-24T06:58:43.727Z,85.90
2023-02-24T07:01:15.486Z,85.70
2023-02-24T07:03:47.585Z,85.90
2023-02-24T07:06:20.456Z,85.70
2023-02-24T07:08:48.259Z,85.90
2023-02-24T07:11:17.622Z,85.90
2023-02-24T07:13:48.404Z,85.80
2023-02-24T07:16:20.349Z,85.70
2023-02-24T07:18:48.706Z,85.80
2023-02-24T07:21:17.056Z,85.80
2023-02-24T07:23:45.454Z,85.70
2023-02-24T07:26:20.089Z,85.60
2023-02-24T07:28:47.975Z,85.70
2023-02-24T07:31:17.344Z,85.70
2023-02-24T07:33:45.424Z,85.70
2023-02-24T07:36:23.013Z,85.70
2023-02-24T07:38:53.004Z,85.60
2023-02-24T07:41:22.701Z,85.50
2023-02-24T07:43:51.740Z,85.50
2023-02-24T07:46:24.654Z,85.50
2023-02-24T07:48:53.048Z,85.50
2023-02-24T07:51:23.845Z,85.40
2023-02-24T07:53:58.955Z,85.50
2023-02-24T07:56:27.916Z,85.50
2023-02-24T07:59:02.041Z,85.50
2023-02-24T08:01:49.786Z,85.30
2023-02-24T08:04:23.352Z,85.30
2023-02-24T08:06:55.999Z,85.50
2023-02-24T08:10:07.260Z,85.50
2023-02-24T08:12:35.136Z,85.30
2023-02-24T08:15:08.804Z,85.20
2023-02-24T08:17:35.883Z,85.80
2023-02-24T08:20:21.955Z,86.20
2023-02-24T08:22:53.248Z,86.20
2023-02-24T08:25:36.063Z,86.20
2023-02-24T08:28:08.453Z,85.90
2023-02-24T08:30:40.855Z,86.30
2023-02-24T08:33:10.092Z,86.20
2023-02-24T08:35:39.114Z,86.00
2023-02-24T08:38:20.392Z,86.00
2023-02-24T08:40:50.663Z,85.90
2023-02-24T08:43:30.825Z,85.90
2023-02-24T08:46:18.374Z,86.20
2023-02-24T08:48:57.219Z,85.90
2023-02-24T08:51:35.645Z,85.80
2023-02-24T08:54:11.327Z,85.80
2023-02-24T08:56:43.326Z,85.80
2023-02-24T08:59:29.031Z,85.70
2023-02-24T09:02:17.651Z,85.60
2023-02-24T09:05:13.084Z,85.70
2023-02-24T09:07:42.365Z,85.60
2023-02-24T09:10:18.008Z,85.70
2023-02-24T09:12:45.164Z,85.50
2023-02-24T09:15:15.585Z,85.50
2023-02-24T09:17:47.160Z,85.50
2023-02-24T09:20:42.797Z,85.60
2023-02-24T09:23:19.880Z,85.50
2023-02-24T09:25:50.661Z,85.50
2023-02-24T09:28:20.017Z,85.50
2023-02-24T09:30:55.819Z,85.40
2023-02-24T09:33:38.632Z,85.30
2023-02-24T09:36:12.870Z,85.30
2023-02-24T09:39:00.377Z,85.30
2023-02-24T09:41:54.800Z,85.30
2023-02-24T09:44:44.282Z,85.80
2023-02-24T09:47:56.692Z,85.60
2023-02-24T09:51:04.135Z,85.50
2023-02-24T09:53:52.541Z,85.60
2023-02-24T09:56:42.638Z,85.50
2023-02-24T09:59:26.049Z,85.60
2023-02-24T10:02:20.291Z,85.60
2023-02-24T10:05:07.377Z,85.60
2023-02-24T10:07:39.474Z,85.40
2023-02-24T10:10:28.004Z,85.30
2023-02-24T10:13:14.734Z,85.30
2023-02-24T10:15:59.147Z,85.30
2023-02-24T10:18:33.608Z,85.30
2023-02-24T10:21:30.675Z,85.20
2023-02-24T10:24:22.825Z,85.10
2023-02-24T10:27:08.156Z,85.20
2023-02-24T10:30:01.143Z,85.00
2023-02-24T10:32:50.225Z,85.00
2023-02-24T10:35:19.732Z,85.40
2023-02-24T10:37:47.188Z,85.30
2023-02-24T10:40:26.270Z,85.10
2023-02-24T10:43:10.383Z,85.10
2023-02-24T10:45:47.430Z,85.00
2023-02-24T10:48:39.310Z,85.00
2023-02-24T10:51:20.550Z,84.90
2023-02-24T10:54:09.469Z,84.90
2023-02-24T10:56:44.229Z,84.80
2023-02-24T10:59:35.727Z,85.40
2023-02-24T11:02:29.370Z,85.10
2023-02-24T11:04:58.658Z,84.80
2023-02-24T11:07:33.333Z,84.70
2023-02-24T11:10:13.707Z,84.60
2023-02-24T11:13:10.099Z,84.60
2023-02-24T11:16:03.659Z,84.60
2023-02-24T11:18:31.812Z,84.70
2023-02-24T11:21:04.013Z,84.90
2023-02-24T11:23:35.163Z,85.10
2023-02-24T11:26:27.270Z,84.70
2023-02-24T11:29:04.256Z,84.60
2023-02-24T11:31:52.246Z,84.50
2023-02-24T11:34:29.108Z,84.50
2023-02-24T11:37:15.968Z,84.60
2023-02-24T11:39:55.456Z,85.50
2023-02-24T11:42:32.724Z,85.20
2023-02-24T11:44:59.371Z,84.90
2023-02-24T11:47:36.704Z,85.10
2023-02-24T11:50:31.997Z,84.90
2023-02-24T11:53:02.440Z,84.60
2023-02-24T11:55:42.543Z,84.60
2023-02-24T11:58:26.514Z,84.50
2023-02-24T12:01:09.249Z,84.70
2023-02-24T12:04:05.127Z,84.50
2023-02-24T12:06:59.831Z,84.50
2023-02-24T12:09:31.454Z,84.30
2023-02-24T12:12:03.282Z,84.40
2023-02-24T12:14:41.894Z,84.30
2023-02-24T12:17:30.955Z,84.30
2023-02-24T12:20:05.877Z,84.40
2023-02-24T12:22:49.714Z,84.60
2023-02-24T12:25:21.660Z,84.70
2023-02-24T12:27:57.573Z,84.60
2023-02-24T12:30:57.499Z,84.60
2023-02-24T12:33:58.642Z,84.60
2023-02-24T12:36:31.252Z,84.60
2023-02-24T12:39:20.528Z,84.60
2023-02-24T12:42:06.006Z,84.50
2023-02-24T12:44:35.426Z,84.50
2023-02-24T12:47:11.706Z,84.50
2023-02-24T12:49:53.199Z,84.40
2023-02-24T12:52:40.183Z,84.40
2023-02-24T12:55:15.863Z,84.50
2023-02-24T12:58:01.213Z,84.40
2023-02-24T13:00:55.867Z,84.50
2023-02-24T13:03:31.352Z,84.30
2023-02-24T13:06:07.551Z,84.30
2023-02-24T13:08:40.397Z,84.30
2023-02-24T13:11:36.418Z,84.30
2023-02-24T13:14:29.874Z,84.50
2023-02-24T13:17:18.801Z,84.50
2023-02-24T13:19:45.924Z,84.50
2023-02-24T13:22:12.583Z,84.50
2023-02-24T13:24:56.146Z,84.30
2023-02-24T13:27:49.672Z,84.30
2023-02-24T13:30:17.733Z,84.40
2023-02-24T13:32:59.558Z,84.40
2023-02-24T13:35:26.425Z,84.50
2023-02-24T13:37:53.856Z,84.20
2023-02-24T13:40:23.499Z,84.40
2023-02-24T13:42:58.236Z,84.40
2023-02-24T13:45:30.668Z,84.40
2023-02-24T13:48:32.458Z,84.30
2023-02-24T13:51:08.524Z,84.40
2023-02-24T13:54:03.466Z,84.40
2023-02-24T13:56:48.438Z,84.40
2023-02-24T13:59:30.464Z,84.20
2023-02-24T14:01:59.023Z,84.30
2023-02-24T14:04:31.610Z,84.50
2023-02-24T14:07:03.812Z,84.40
2023-02-24T14:09:39.302Z,84.30
2023-02-24T14:12:14.180Z,84.60
2023-02-24T14:14:43.223Z,84.50
2023-02-24T14:17:28.632Z,84.40
2023-02-24T14:20:14.320Z,84.40
2023-02-24T14:22:47.375Z,84.30
2023-02-24T14:25:15.675Z,84.20
2023-02-24T14:27:49.342Z,84.10
2023-02-24T14:30:35.414Z,84.30
2023-02-24T14:33:03.605Z,85.00
2023-02-24T14:35:35.248Z,84.60
2023-02-24T14:38:02.563Z,84.40
2023-02-24T14:40:29.646Z,84.40
2023-02-24T14:42:57.566Z,85.60
2023-02-24T14:45:27.215Z,85.80
2023-02-24T14:47:55.823Z,85.50
2023-02-24T14:50:34.113Z,85.50
2023-02-24T14:53:07.401Z,85.00
2023-02-24T14:55:41.428Z,84.90
2023-02-24T14:58:30.278Z,84.80
2023-02-24T15:01:06.640Z,84.70
2023-02-24T15:03:40.620Z,84.50
2023-02-24T15:06:15.030Z,84.50
2023-02-24T15:08:46.148Z,84.50
2023-02-24T15:11:15.866Z,84.30
2023-02-24T15:13:50.242Z,84.30
2023-02-24T15:16:26.984Z,84.30
2023-02-24T15:19:01.013Z,84.30
2023-02-24T15:21:42.639Z,84.30
2023-02-24T15:24:24.506Z,84.20
2023-02-24T15:26:59.328Z,84.10
2023-02-24T15:29:30.212Z,84.10
2023-02-24T15:31:59.835Z,84.00
2023-02-24T15:34:31.008Z,84.10
2023-02-24T15:37:03.036Z,84.10
2023-02-24T15:39:32.170Z,84.00
2023-02-24T15:42:32.436Z,83.90
2023-02-24T15:45:02.698Z,83.90
2023-02-24T15:47:32.454Z,83.90
2023-02-24T15:49:59.550Z,83.70
2023-02-24T15:52:28.739Z,83.20
2023-02-24T15:54:57.878Z,83.30
2023-02-24T15:57:25.385Z,83.50
2023-02-24T15:59:52.334Z,83.60
2023-02-24T16:02:21.822Z,83.70
2023-02-24T16:04:49.325Z,84.20
2023-02-24T16:07:25.644Z,84.10
2023-02-24T16:09:54.458Z,84.30
2023-02-24T16:12:31.995Z,84.30
2023-02-24T16:15:03.331Z,84.10
2023-02-24T16:17:32.843Z,84.20
2023-02-24T16:20:00.999Z,84.20
2023-02-24T16:22:28.548Z,84.40
2023-02-24T16:24:55.307Z,84.30
2023-02-24T16:27:23.719Z,84.30
2023-02-24T16:29:51.052Z,84.30
2023-02-24T16:32:17.913Z,84.30
2023-02-24T16:34:44.735Z,84.30
2023-02-24T16:37:23.961Z,84.30
2023-02-24T16:39:50.771Z,84.50
2023-02-24T16:42:20.253Z,84.60
2023-02-24T16:44:49.336Z,84.50
2023-02-24T16:47:22.680Z,84.40
2023-02-24T16:49:49.760Z,84.40
2023-02-24T16:52:20.625Z,84.40
2023-02-24T16:54:48.206Z,84.30
2023-02-24T16:57:15.264Z,84.40
2023-02-24T16:59:42.019Z,84.70
2023-02-24T17:02:19.913Z,84.40
2023-02-24T17:04:46.595Z,84.30
2023-02-24T17:07:14.574Z,84.20
2023-02-24T17:09:41.336Z,84.30
2023-02-24T17:12:11.256Z,84.20
2023-02-24T17:14:37.939Z,84.20
2023-02-24T17:17:04.690Z,84.20
2023-02-24T17:19:31.376Z,84.20
2023-02-24T17:21:58.023Z,84.50
2023-02-24T17:24:24.982Z,84.70
2023-02-24T17:26:52.310Z,84.80
2023-02-24T17:29:18.977Z,84.50
2023-02-24T17:31:46.220Z,84.30
2023-02-24T17:34:12.980Z,84.20
2023-02-24T17:36:39.652Z,84.30
2023-02-24T17:39:06.380Z,84.20
2023-02-24T17:41:33.086Z,84.30
2023-02-24T17:43:59.716Z,84.20
2023-02-24T17:46:26.756Z,84.20
2023-02-24T17:48:53.671Z,84.20
2023-02-24T17:51:22.299Z,84.20
2023-02-24T17:53:49.478Z,84.20
2023-02-24T17:56:16.147Z,84.30
2023-02-24T17:58:42.810Z,84.40
2023-02-24T18:01:11.168Z,84.30
2023-02-24T18:03:38.143Z,84.30
2023-02-24T18:06:06.581Z,84.30
2023-02-24T18:08:34.416Z,84.30
2023-02-24T18:11:01.330Z,84.30
2023-02-24T18:13:29.666Z,84.40
2023-02-24T18:15:56.508Z,84.40
2023-02-24T18:18:24.498Z,84.30
2023-02-24T18:20:51.289Z,84.20
2023-02-24T18:23:18.314Z,84.30
2023-02-24T18:25:45.175Z,84.30
2023-02-24T18:28:11.832Z,84.30
2023-02-24T18:30:39.464Z,84.30
2023-02-24T18:33:06.344Z,84.20
2023-02-24T18:35:33.136Z,84.40
2023-02-24T18:37:59.784Z,84.20
2023-02-24T18:40:29.484Z,84.30
2023-02-24T18:42:56.261Z,84.30
2023-02-24T18:45:23.808Z,84.20
2023-02-24T18:47:51.679Z,84.30
2023-02-24T18:50:18.810Z,84.40
2023-02-24T18:52:45.502Z,84.40
2023-02-24T18:55:12.142Z,84.40
2023-02-24T18:57:40.244Z,84.30
2023-02-24T19:00:07.637Z,84.30
2023-02-24T19:02:34.384Z,84.30
2023-02-24T19:05:01.074Z,84.30
2023-02-24T19:07:28.064Z,84.40
2023-02-24T19:09:54.771Z,84.30
2023-02-24T19:12:21.467Z,84.30
2023-02-24T19:14:52.335Z,84.40
2023-02-24T19:17:19.813Z,84.30
2023-02-24T19:19:46.650Z,84.30
2023-02-24T19:22:13.392Z,84.30
2023-02-24T19:24:40.269Z,84.30
2023-02-24T19:27:08.595Z,84.40
2023-02-24T19:29:35.409Z,84.30
2023-02-24T19:32:02.245Z,84.40
2023-02-24T19:34:29.080Z,84.40
2023-02-24T19:36:55.748Z,84.30
2023-02-24T19:39:22.523Z,84.30
2023-02-24T19:41:49.928Z,84.40
2023-02-24T19:44:16.716Z,84.40
2023-02-24T19:46:43.457Z,84.40
2023-02-24T19:49:10.135Z,84.50
2023-02-24T19:51:36.999Z,84.70
2023-02-24T19:54:05.776Z,84.40
2023-02-24T19:56:35.674Z,84.10
2023-02-24T19:59:04.528Z,84.00
2023-02-24T20:01:31.942Z,84.10
2023-02-24T20:04:01.008Z,84.20
2023-02-24T20:06:36.698Z,84.30
2023-02-24T20:09:08.389Z,84.30
2023-02-24T20:11:36.003Z,84.30
2023-02-24T20:14:02.669Z,84.40
2023-02-24T20:16:32.548Z,84.40
2023-02-24T20:19:00.044Z,84.40
2023-02-24T20:21:27.658Z,84.40
2023-02-24T20:23:54.400Z,84.50
2023-02-24T20:26:21.652Z,84.50
2023-02-24T20:28:48.889Z,84.50
2023-02-24T20:31:18.481Z,84.50
2023-02-24T20:33:47.104Z,84.50
2023-02-24T20:36:25.322Z,84.50
2023-02-24T20:38:53.694Z,84.40
2023-02-24T20:41:21.440Z,84.40
2023-02-24T20:43:48.944Z,84.50
2023-02-24T20:46:18.346Z,84.50
2023-02-24T20:48:45.304Z,84.50
2023-02-24T20:51:15.330Z,84.50
2023-02-24T20:53:56.085Z,84.50
2023-02-24T20:56:25.563Z,84.50
2023-02-24T20:58:56.627Z,84.50
2023-02-24T21:01:23.365Z,84.50
2023-02-24T21:03:51.185Z,84.70
2023-02-24T21:06:18.389Z,84.60
2023-02-24T21:08:45.477Z,84.50
2023-02-24T21:11:13.771Z,84.50
2023-02-24T21:13:42.577Z,84.50
2023-02-24T21:16:10.537Z,84.50
2023-02-24T21:18:39.238Z,84.50
2023-02-24T21:21:07.721Z,84.50
2023-02-24T21:23:35.663Z,84.50
2023-02-24T21:26:02.751Z,84.60
2023-02-24T21:28:29.396Z,84.50
2023-02-24T21:30:56.390Z,84.50
2023-02-24T21:33:23.287Z,84.50
2023-02-24T21:36:06.442Z,84.50
2023-02-24T21:38:35.216Z,84.60
2023-02-24T21:41:03.541Z,84.60
2023-02-24T21:43:30.409Z,84.60
2023-02-24T21:46:01.131Z,84.40
2023-02-24T21:48:27.810Z,84.40
2023-02-24T21:51:03.729Z,84.50
2023-02-24T21:53:35.575Z,84.50
2023-02-24T21:56:16.560Z,84.40
2023-02-24T21:58:46.259Z,84.40
2023-02-24T22:01:24.857Z,84.40
2023-02-24T22:03:55.373Z,84.40
2023-02-24T22:06:23.118Z,84.50
2023-02-24T22:08:50.009Z,84.90
2023-02-24T22:11:18.230Z,84.60
2023-02-24T22:13:46.248Z,84.50
2023-02-24T22:16:15.822Z,84.80
2023-02-24T22:18:42.599Z,84.60
2023-02-24T22:21:12.491Z,84.60
2023-02-24T22:23:39.394Z,84.50
2023-02-24T22:26:08.688Z,84.60
2023-02-24T22:28:36.867Z,84.50
2023-02-24T22:31:03.738Z,84.50
2023-02-24T22:33:32.402Z,84.50
2023-02-24T22:36:07.994Z,84.50
2023-02-24T22:38:35.838Z,84.50
2023-02-24T22:41:10.706Z,85.00
2023-02-24T22:43:37.609Z,84.90
2023-02-24T22:46:07.290Z,84.60
2023-02-24T22:48:36.318Z,84.50
2023-02-24T22:51:05.373Z,84.50
2023-02-24T22:53:34.659Z,84.50
2023-02-24T22:56:01.751Z,84.50
2023-02-24T22:58:28.398Z,84.50
2023-02-24T23:00:55.413Z,84.50
2023-02-24T23:03:25.285Z,84.50
2023-02-24T23:06:03.333Z,84.50
2023-02-24T23:08:33.572Z,84.30
2023-02-24T23:11:12.053Z,84.50
2023-02-24T23:13:40.133Z,84.60
2023-02-24T23:16:10.307Z,84.50
2023-02-24T23:18:37.242Z,84.50
2023-02-24T23:21:08.053Z,84.40
2023-02-24T23:23:35.561Z,84.50
2023-02-24T23:26:02.231Z,84.30
2023-02-24T23:28:28.898Z,84.50
2023-02-24T23:30:56.596Z,84.40
2023-02-24T23:33:23.407Z,84.60
2023-02-24T23:35:50.167Z,84.50
2023-02-24T23:38:17.100Z,84.60
2023-02-24T23:40:50.592Z,84.50
2023-02-24T23:43:18.219Z,84.60
2023-02-24T23:45:45.304Z,84.80
2023-02-24T23:48:13.534Z,84.80
2023-02-24T23:50:41.867Z,84.60
2023-02-24T23:53:09.009Z,84.80
2023-02-24T23:55:38.287Z,84.50
2023-02-24T23:58:05.332Z,84.70
